Time;durP1;ratioP1;P1;durP2;ratioP2;P2;SDS_P1;SDS_P2;PMS_P1;PMS_P2;Temp;Humidity;BMP_temperature;BMP_pressure;BME280_temperature;BME280_humidity;BME280_pressure;Samples;Min_cycle;Max_cycle;Signal;HPM_P1;HPM_P2
2022/05/24 00:00:07;;;;;;;0.40;0.30;;;18.30;99.90;;;;;;5013248;28;20472;-69
2022/05/24 00:02:34;;;;;;;0.40;0.20;;;18.20;99.90;;;;;;5013947;28;20476;-70
2022/05/24 00:04:59;;;;;;;0.40;0.20;;;18.10;99.90;;;;;;5012897;28;20377;-69
2022/05/24 00:07:25;;;;;;;0.40;0.20;;;18.00;99.90;;;;;;5013376;28;20471;-71
2022/05/24 00:09:51;;;;;;;0.40;0.20;;;18.00;99.90;;;;;;5012632;28;20519;-70
2022/05/24 00:12:16;;;;;;;0.40;0.30;;;18.00;99.90;;;;;;4992548;28;20501;-70
2022/05/24 00:17:26;;;;;;;0.60;0.50;;;17.90;99.90;;;;;;4991666;28;20377;-71
2022/05/24 00:19:52;;;;;;;0.40;0.20;;;17.90;99.90;;;;;;4973738;28;20395;-71
2022/05/24 00:22:18;;;;;;;0.40;0.30;;;18.00;99.90;;;;;;4974614;28;20385;-69
2022/05/24 00:24:44;;;;;;;0.40;0.20;;;18.00;99.90;;;;;;4975668;28;20396;-71
2022/05/24 00:27:12;;;;;;;0.40;0.20;;;17.90;99.90;;;;;;4993421;28;20510;-69
2022/05/24 00:29:38;;;;;;;0.40;0.30;;;17.90;99.90;;;;;;4993359;28;20410;-71
2022/05/24 00:32:04;;;;;;;0.40;0.30;;;17.90;99.90;;;;;;4993032;28;20381;-71
2022/05/24 00:34:29;;;;;;;0.40;0.30;;;17.90;99.90;;;;;;4993768;28;20979;-69
2022/05/24 00:36:55;;;;;;;0.40;0.30;;;18.00;99.90;;;;;;4992780;28;20398;-71
2022/05/24 00:39:21;;;;;;;0.40;0.20;;;18.00;99.90;;;;;;4993429;28;20413;-70
2022/05/24 00:42:03;;;;;;;0.40;0.30;;;18.00;99.90;;;;;;4992912;28;20402;-70
2022/05/24 00:44:35;;;;;;;0.40;0.30;;;18.00;99.90;;;;;;4993375;28;20383;-71
2022/05/24 00:47:10;;;;;;;0.40;0.20;;;17.90;99.90;;;;;;4992517;28;20394;-71
2022/05/24 00:49:41;;;;;;;0.40;0.35;;;18.00;99.90;;;;;;4993295;28;20501;-70
2022/05/24 00:52:13;;;;;;;0.40;0.30;;;18.00;99.90;;;;;;4992261;28;20875;-69
2022/05/24 00:54:39;;;;;;;0.40;0.20;;;18.00;99.90;;;;;;4992956;28;20391;-71
2022/05/24 00:57:27;;;;;;;0.40;0.20;;;18.00;99.90;;;;;;4992015;28;20385;-70
2022/05/24 01:00:01;;;;;;;0.40;0.40;;;18.00;99.90;;;;;;4991978;28;20521;-71
2022/05/24 01:02:26;;;;;;;0.40;0.20;;;18.00;99.90;;;;;;4992912;28;20453;-71
2022/05/24 01:04:52;;;;;;;0.40;0.20;;;18.00;99.90;;;;;;4992373;28;20482;-72
2022/05/24 01:07:18;;;;;;;0.40;0.30;;;17.90;99.90;;;;;;4992805;28;20379;-71
2022/05/24 01:09:52;;;;;;;0.40;0.20;;;17.90;99.90;;;;;;4988254;28;20783;-70
2022/05/24 01:12:36;;;;;;;0.40;0.20;;;17.90;99.90;;;;;;4997792;28;20630;-71
2022/05/24 01:15:05;;;;;;;0.40;0.30;;;17.80;99.90;;;;;;5011575;28;20475;-71
2022/05/24 01:17:31;;;;;;;0.40;0.20;;;17.80;99.90;;;;;;5012875;28;20470;-71
2022/05/24 01:19:58;;;;;;;0.40;0.30;;;17.80;99.90;;;;;;5011682;28;20413;-71
2022/05/24 01:22:52;;;;;;;0.40;0.20;;;17.90;99.90;;;;;;5012233;28;20381;-71
2022/05/24 01:25:26;;;;;;;0.40;0.20;;;17.90;99.90;;;;;;5012152;28;20381;-71
2022/05/24 01:27:52;;;;;;;0.40;0.20;;;17.90;99.90;;;;;;5011127;28;20463;-70
2022/05/24 01:30:18;;;;;;;0.40;0.20;;;17.80;99.90;;;;;;5012004;28;20512;-72
2022/05/24 01:38:18;;;;;;;0.40;0.20;;;17.80;99.90;;;;;;5011353;28;20376;-70
2022/05/24 01:40:47;;;;;;;0.40;0.20;;;17.80;99.90;;;;;;5011815;28;20407;-71
2022/05/24 01:43:18;;;;;;;0.40;0.30;;;17.80;99.90;;;;;;5010873;28;20504;-71
2022/05/24 01:45:49;;;;;;;0.40;0.20;;;17.80;99.90;;;;;;5011823;28;20393;-70
2022/05/24 01:48:20;;;;;;;0.40;0.20;;;17.80;99.90;;;;;;5011627;28;20388;-70
2022/05/24 01:50:47;;;;;;;0.40;0.30;;;17.70;99.90;;;;;;5011719;28;20377;-69
2022/05/24 01:53:27;;;;;;;0.40;0.20;;;17.70;99.90;;;;;;5010811;28;20384;-70
2022/05/24 01:55:56;;;;;;;0.40;0.30;;;17.70;99.90;;;;;;5010690;28;20752;-69
2022/05/24 01:58:26;;;;;;;0.40;0.20;;;17.70;99.90;;;;;;5011725;28;20384;-68
2022/05/24 02:01:23;;;;;;;0.40;0.20;;;17.60;99.90;;;;;;5010751;28;20471;-71
2022/05/24 02:03:48;;;;;;;0.40;0.20;;;17.60;99.90;;;;;;5011445;28;20397;-70
2022/05/24 02:06:24;;;;;;;0.40;0.20;;;17.60;99.90;;;;;;5011028;28;20405;-70
2022/05/24 02:08:51;;;;;;;0.40;0.20;;;17.60;99.90;;;;;;5011121;28;20424;-70
2022/05/24 02:11:23;;;;;;;0.40;0.30;;;17.60;99.90;;;;;;5010813;28;20455;-72
2022/05/24 02:13:50;;;;;;;0.40;0.30;;;17.70;99.90;;;;;;5011504;28;20467;-73
2022/05/24 02:16:21;;;;;;;0.40;0.20;;;17.60;99.90;;;;;;5010632;28;20443;-72
2022/05/24 02:18:49;;;;;;;0.40;0.20;;;17.60;99.90;;;;;;5010773;28;20396;-73
2022/05/24 02:21:14;;;;;;;0.40;0.20;;;17.70;99.90;;;;;;5010567;28;20408;-72
2022/05/24 02:23:46;;;;;;;0.40;0.20;;;17.70;99.90;;;;;;5009083;28;20936;-72
2022/05/24 02:26:14;;;;;;;0.40;0.20;;;17.70;99.90;;;;;;4998393;28;20685;-72
2022/05/24 02:28:40;;;;;;;0.40;0.20;;;17.70;99.90;;;;;;5001022;28;20520;-72
2022/05/24 02:31:13;;;;;;;0.40;0.20;;;17.70;99.90;;;;;;5008176;28;20895;-70
2022/05/24 02:33:39;;;;;;;0.40;0.20;;;17.60;99.90;;;;;;4999689;28;20389;-73
2022/05/24 02:36:06;;;;;;;0.40;0.20;;;17.70;99.90;;;;;;5010359;28;20749;-72
2022/05/24 02:38:32;;;;;;;0.40;0.20;;;17.60;99.90;;;;;;5011012;28;20396;-71
2022/05/24 02:44:02;;;;;;;0.40;0.20;;;17.70;99.90;;;;;;4968885;28;20873;-71
2022/05/24 02:46:30;;;;;;;0.40;0.30;;;17.70;99.90;;;;;;5003467;28;20796;-73
2022/05/24 02:48:56;;;;;;;0.40;0.30;;;17.70;99.90;;;;;;5010269;28;20739;-71
2022/05/24 02:51:22;;;;;;;0.40;0.20;;;17.70;99.90;;;;;;5011161;28;20392;-71
2022/05/24 02:53:48;;;;;;;0.40;0.20;;;17.70;99.90;;;;;;5013366;28;20914;-71
2022/05/24 02:56:15;;;;;;;0.40;0.20;;;17.70;99.90;;;;;;5014254;28;20415;-72
2022/05/24 02:58:41;;;;;;;0.40;0.20;;;17.70;99.90;;;;;;5015099;28;20400;-72
2022/05/24 03:01:13;;;;;;;0.40;0.20;;;17.70;99.90;;;;;;5014259;28;20385;-72
2022/05/24 03:04:01;;;;;;;0.40;0.30;;;17.70;99.90;;;;;;5013833;28;20416;-72
2022/05/24 03:06:27;;;;;;;0.40;0.20;;;17.70;99.90;;;;;;5014934;28;20428;-71
2022/05/24 03:14:24;;;;;;;0.40;0.20;;;17.60;99.90;;;;;;5014742;28;20388;-71
2022/05/24 03:16:56;;;;;;;0.40;0.20;;;17.60;99.90;;;;;;4997099;28;20495;-71
2022/05/24 03:19:23;;;;;;;0.40;0.20;;;17.60;99.90;;;;;;5014698;28;20389;-71
2022/05/24 03:21:50;;;;;;;0.40;0.22;;;17.60;99.90;;;;;;5014357;28;20861;-71
2022/05/24 03:24:16;;;;;;;0.40;0.30;;;17.60;99.90;;;;;;4996377;28;20388;-71
2022/05/24 03:26:41;;;;;;;0.40;0.20;;;17.60;99.90;;;;;;5014489;28;20491;-71
2022/05/24 03:29:07;;;;;;;0.40;0.20;;;17.60;99.90;;;;;;5013898;28;20439;-72
2022/05/24 03:31:35;;;;;;;0.40;0.20;;;17.50;99.90;;;;;;5014326;28;20389;-71
2022/05/24 03:34:00;;;;;;;0.40;0.30;;;17.50;99.90;;;;;;5013592;28;20396;-70
2022/05/24 03:36:26;;;;;;;0.40;0.20;;;17.60;99.90;;;;;;5014362;28;20385;-70
2022/05/24 03:38:51;;;;;;;0.40;0.20;;;17.50;99.90;;;;;;5014342;28;20381;-71
2022/05/24 03:41:17;;;;;;;0.40;0.20;;;17.50;99.90;;;;;;5006536;28;21283;-71
2022/05/24 03:43:43;;;;;;;0.40;0.30;;;17.50;99.90;;;;;;4998974;28;20393;-72
2022/05/24 03:46:11;;;;;;;0.40;0.20;;;17.50;99.90;;;;;;5013076;28;20412;-72
2022/05/24 03:48:37;;;;;;;0.40;0.30;;;17.50;99.90;;;;;;5014137;28;20408;-71
2022/05/24 03:51:04;;;;;;;0.40;0.20;;;17.50;99.90;;;;;;5013168;28;20392;-70
2022/05/24 03:53:30;;;;;;;0.40;0.20;;;17.40;99.90;;;;;;5013745;28;20884;-71
2022/05/24 03:55:55;;;;;;;0.40;0.20;;;17.40;99.90;;;;;;5013812;28;20389;-71
2022/05/24 03:58:22;;;;;;;0.40;0.20;;;17.40;99.90;;;;;;5013306;28;20380;-72
2022/05/24 04:00:48;;;;;;;0.40;0.20;;;17.50;99.90;;;;;;5013851;28;20795;-73
2022/05/24 04:03:14;;;;;;;0.40;0.20;;;17.40;99.90;;;;;;5012883;28;20423;-72
2022/05/24 04:05:40;;;;;;;0.40;0.20;;;17.40;99.90;;;;;;5012921;28;20755;-73
2022/05/24 04:08:07;;;;;;;0.40;0.20;;;17.50;99.90;;;;;;5012934;28;20883;-72
2022/05/24 04:10:33;;;;;;;0.40;0.20;;;17.50;99.90;;;;;;5013414;28;20758;-73
2022/05/24 04:13:00;;;;;;;0.40;0.20;;;17.50;99.90;;;;;;4995626;28;20873;-71
2022/05/24 04:15:26;;;;;;;0.40;0.25;;;17.50;99.90;;;;;;5013415;28;20873;-73
2022/05/24 04:17:52;;;;;;;0.40;0.30;;;17.50;99.90;;;;;;5013536;28;20404;-73
2022/05/24 04:20:19;;;;;;;0.40;0.20;;;17.50;99.90;;;;;;5012764;28;21065;-71
2022/05/24 04:22:45;;;;;;;0.40;0.20;;;17.50;99.90;;;;;;5013572;28;20385;-71
2022/05/24 04:25:12;;;;;;;0.40;0.20;;;17.50;99.90;;;;;;5009349;28;21223;-70
2022/05/24 04:27:38;;;;;;;0.80;0.80;;;17.50;99.90;;;;;;5001337;28;20415;-72
2022/05/24 04:30:07;;;;;;;0.40;0.30;;;17.50;99.90;;;;;;4997452;28;20410;-70
2022/05/24 04:32:32;;;;;;;0.40;0.20;;;17.50;99.90;;;;;;5000693;28;20390;-72
2022/05/24 04:34:58;;;;;;;0.40;0.20;;;17.50;99.90;;;;;;4983467;28;20400;-72
2022/05/24 04:37:24;;;;;;;0.40;0.20;;;17.50;99.90;;;;;;5001531;28;20477;-70
2022/05/24 04:39:50;;;;;;;0.40;0.20;;;17.50;99.90;;;;;;4997784;28;20878;-72
2022/05/24 04:42:18;;;;;;;0.40;0.20;;;17.60;99.90;;;;;;4997806;28;20387;-73
2022/05/24 04:44:46;;;;;;;0.40;0.20;;;17.50;99.90;;;;;;5000616;28;20425;-70
2022/05/24 04:47:13;;;;;;;0.40;0.20;;;17.50;99.90;;;;;;5002191;28;20390;-70
2022/05/24 04:49:44;;;;;;;0.40;0.20;;;17.50;99.90;;;;;;4998868;28;20469;-69
2022/05/24 04:52:12;;;;;;;0.40;0.20;;;17.40;99.90;;;;;;4997994;28;20384;-70
2022/05/24 04:54:39;;;;;;;0.40;0.20;;;17.40;99.90;;;;;;4996157;28;20387;-70
2022/05/24 04:57:06;;;;;;;0.40;0.20;;;17.40;99.90;;;;;;4995494;28;20921;-70
2022/05/24 04:59:31;;;;;;;0.40;0.20;;;17.40;99.90;;;;;;4985924;28;20417;-71
2022/05/24 05:01:57;;;;;;;0.40;0.20;;;17.40;99.90;;;;;;4996552;28;20395;-71
2022/05/24 05:04:24;;;;;;;0.40;0.20;;;17.30;99.90;;;;;;4996391;28;20493;-71
2022/05/24 05:06:50;;;;;;;0.40;0.20;;;17.30;99.90;;;;;;4995191;28;20444;-72
2022/05/24 05:09:17;;;;;;;0.50;0.50;;;17.10;99.90;;;;;;4993708;28;20779;-70
2022/05/24 05:11:43;;;;;;;0.40;0.20;;;17.10;99.90;;;;;;5003322;28;20444;-71
2022/05/24 05:14:10;;;;;;;0.40;0.20;;;17.10;99.90;;;;;;5000806;28;20723;-72
2022/05/24 05:16:36;;;;;;;0.60;0.60;;;17.10;99.90;;;;;;4997650;28;20381;-72
2022/05/24 05:19:03;;;;;;;0.40;0.20;;;17.10;99.90;;;;;;4993608;28;20456;-73
2022/05/24 05:21:34;;;;;;;0.40;0.30;;;17.20;99.90;;;;;;4998275;28;20429;-70
2022/05/24 05:24:01;;;;;;;0.40;0.20;;;17.20;99.90;;;;;;4998529;28;21923;-71
2022/05/24 05:26:27;;;;;;;0.40;0.20;;;17.10;99.90;;;;;;5006363;28;20495;-71
2022/05/24 05:28:52;;;;;;;0.40;0.20;;;17.10;99.90;;;;;;5000809;28;20972;-70
2022/05/24 05:31:27;;;;;;;0.40;0.20;;;16.90;99.90;;;;;;5008075;28;20450;-70
2022/05/24 05:33:58;;;;;;;0.40;0.20;;;16.90;99.90;;;;;;4993307;28;20404;-71
2022/05/24 05:36:24;;;;;;;0.40;0.20;;;16.80;99.90;;;;;;5002398;28;21132;-70
2022/05/24 05:38:50;;;;;;;0.40;0.20;;;16.70;99.90;;;;;;5002088;28;20400;-70
2022/05/24 05:41:23;;;;;;;0.40;0.20;;;16.60;99.90;;;;;;4992216;28;20829;-70
2022/05/24 05:43:50;;;;;;;0.40;0.20;;;16.50;99.90;;;;;;5010978;28;20416;-70
2022/05/24 05:46:17;;;;;;;0.40;0.20;;;16.20;99.90;;;;;;4992436;28;20405;-71
2022/05/24 05:48:44;;;;;;;0.40;0.20;;;16.00;99.90;;;;;;5007594;28;20517;-74
2022/05/24 05:51:25;;;;;;;0.40;0.20;;;15.80;99.90;;;;;;4990848;28;20398;-72
2022/05/24 05:53:51;;;;;;;0.40;0.20;;;15.70;99.90;;;;;;4994815;28;20397;-70
2022/05/24 05:56:19;;;;;;;0.40;0.20;;;15.70;99.90;;;;;;5010013;28;20384;-71
2022/05/24 05:58:45;;;;;;;0.40;0.30;;;15.70;99.90;;;;;;5005535;28;20913;-71
2022/05/24 06:01:16;;;;;;;0.40;0.30;;;15.80;99.90;;;;;;4999072;28;20480;-72
2022/05/24 06:03:42;;;;;;;0.40;0.20;;;15.80;99.90;;;;;;4998190;28;20401;-72
2022/05/24 06:06:10;;;;;;;0.40;0.20;;;15.90;99.90;;;;;;4992176;28;20465;-71
2022/05/24 06:08:36;;;;;;;0.40;0.20;;;15.80;99.90;;;;;;5001735;28;20418;-71
2022/05/24 06:11:02;;;;;;;0.40;0.20;;;15.80;99.90;;;;;;4993143;28;20418;-72
2022/05/24 06:13:28;;;;;;;0.40;0.30;;;15.80;99.90;;;;;;5004089;28;20494;-72
2022/05/24 06:15:55;;;;;;;0.40;0.20;;;15.80;99.90;;;;;;4998671;28;20468;-72
2022/05/24 06:18:21;;;;;;;0.40;0.20;;;15.80;99.90;;;;;;4992140;28;20399;-71
2022/05/24 06:20:47;;;;;;;0.40;0.20;;;15.40;99.90;;;;;;5010217;28;20397;-71
2022/05/24 06:23:13;;;;;;;0.40;0.28;;;15.30;99.90;;;;;;5009646;28;20868;-71
2022/05/24 06:25:40;;;;;;;0.40;0.20;;;14.90;99.90;;;;;;5010955;28;20413;-70
2022/05/24 06:28:06;;;;;;;0.40;0.20;;;15.00;99.90;;;;;;5010057;28;20373;-70
2022/05/24 06:30:32;;;;;;;0.40;0.20;;;15.00;99.90;;;;;;5010460;28;20471;-71
2022/05/24 06:32:57;;;;;;;0.40;0.20;;;15.00;99.90;;;;;;5010811;28;20388;-71
2022/05/24 06:35:23;;;;;;;0.40;0.20;;;15.20;99.90;;;;;;5010254;28;20504;-70
2022/05/24 06:37:49;;;;;;;0.40;0.20;;;15.20;99.90;;;;;;5010017;28;20419;-71
2022/05/24 06:40:18;;;;;;;0.40;0.30;;;15.20;99.90;;;;;;4990545;28;20453;-70
2022/05/24 06:42:44;;;;;;;0.40;0.20;;;15.40;99.90;;;;;;4991492;28;20392;-69
2022/05/24 06:45:10;;;;;;;0.40;0.20;;;15.30;99.90;;;;;;4973162;28;20493;-70
2022/05/24 06:47:37;;;;;;;0.40;0.20;;;15.10;99.90;;;;;;5007856;28;20405;-69
2022/05/24 06:50:04;;;;;;;0.40;0.20;;;15.20;99.90;;;;;;5010695;28;20409;-70
2022/05/24 06:52:30;;;;;;;0.40;0.20;;;15.10;99.90;;;;;;5010157;28;20409;-70
2022/05/24 06:54:55;;;;;;;0.40;0.30;;;15.00;99.90;;;;;;5010910;28;20431;-70
2022/05/24 06:57:21;;;;;;;0.40;0.20;;;15.00;99.90;;;;;;5009913;28;20388;-70
2022/05/24 07:02:33;;;;;;;0.40;0.20;;;15.20;99.90;;;;;;5010062;28;20495;-70
2022/05/24 07:05:00;;;;;;;0.40;0.20;;;15.30;99.90;;;;;;5011003;28;20380;-70
2022/05/24 07:07:26;;;;;;;0.40;0.20;;;15.40;99.90;;;;;;4999275;28;21291;-71
2022/05/24 07:09:53;;;;;;;0.40;0.20;;;15.40;99.90;;;;;;5000461;28;20873;-72
2022/05/24 07:12:20;;;;;;;0.40;0.20;;;15.30;99.90;;;;;;5009029;28;20404;-70
2022/05/24 07:14:46;;;;;;;0.40;0.20;;;15.20;99.90;;;;;;5010200;28;20494;-70
2022/05/24 07:17:13;;;;;;;0.40;0.20;;;15.10;99.90;;;;;;5009990;28;20392;-67
2022/05/24 07:19:39;;;;;;;0.70;0.70;;;15.00;99.90;;;;;;5007323;28;20760;-70
2022/05/24 07:22:05;;;;;;;0.40;0.20;;;15.00;99.90;;;;;;4995384;28;20390;-69
2022/05/24 07:24:31;;;;;;;0.40;0.20;;;15.10;99.90;;;;;;4998345;28;20405;-70
2022/05/24 07:26:57;;;;;;;0.40;0.20;;;15.00;99.90;;;;;;4991691;28;20879;-70
2022/05/24 07:29:23;;;;;;;0.40;0.20;;;14.80;99.90;;;;;;5008461;28;20881;-71
2022/05/24 07:31:50;;;;;;;0.40;0.20;;;14.80;99.90;;;;;;5007054;28;20536;-69
2022/05/24 07:34:16;;;;;;;0.40;0.20;;;14.60;99.90;;;;;;4998384;28;20388;-69
2022/05/24 07:36:42;;;;;;;0.40;0.20;;;14.60;99.90;;;;;;5005125;28;20881;-70
2022/05/24 07:39:08;;;;;;;0.40;0.20;;;14.70;99.90;;;;;;4993075;28;20408;-68
2022/05/24 07:47:04;;;;;;;0.40;0.20;;;14.40;99.90;;;;;;5002897;28;20440;-72
2022/05/24 07:49:30;;;;;;;0.40;0.30;;;14.40;99.90;;;;;;4994086;28;20756;-70
2022/05/24 07:51:56;;;;;;;0.40;0.20;;;14.30;99.90;;;;;;5001625;28;20405;-69
2022/05/24 07:54:21;;;;;;;0.40;0.30;;;14.50;99.90;;;;;;4994048;28;20452;-70
2022/05/24 07:56:47;;;;;;;0.40;0.20;;;14.70;99.90;;;;;;4994861;28;20401;-69
2022/05/24 07:59:13;;;;;;;0.40;0.20;;;14.90;99.90;;;;;;5004841;28;20488;-70
2022/05/24 08:01:40;;;;;;;4.50;2.20;;;15.00;99.90;;;;;;5013071;28;20396;-71
2022/05/24 08:04:06;;;;;;;0.40;0.20;;;15.20;99.90;;;;;;5012490;28;20393;-71
2022/05/24 08:06:31;;;;;;;0.40;0.20;;;15.50;99.90;;;;;;5009725;28;20887;-70
2022/05/24 08:08:57;;;;;;;0.40;0.20;;;15.50;99.90;;;;;;5003215;28;20508;-70
2022/05/24 08:11:23;;;;;;;0.40;0.30;;;15.70;99.90;;;;;;4994336;28;20426;-71
2022/05/24 08:13:49;;;;;;;0.40;0.20;;;15.70;99.90;;;;;;4994489;28;20410;-71
2022/05/24 08:16:15;;;;;;;0.40;0.30;;;15.70;99.90;;;;;;5001323;28;20398;-69
2022/05/24 08:18:40;;;;;;;0.40;0.20;;;15.80;99.90;;;;;;4986200;28;20490;-69
2022/05/24 08:21:06;;;;;;;0.40;0.20;;;15.80;99.90;;;;;;5001306;28;20451;-71
2022/05/24 08:23:33;;;;;;;0.40;0.40;;;15.60;99.90;;;;;;4995580;28;20394;-70
2022/05/24 08:25:59;;;;;;;0.40;0.22;;;15.70;99.90;;;;;;5002289;28;20873;-70
2022/05/24 08:28:27;;;;;;;0.40;0.30;;;15.90;99.90;;;;;;5012042;28;20420;-72
2022/05/24 08:30:55;;;;;;;0.40;0.30;;;15.80;99.90;;;;;;5002989;28;20405;-70
2022/05/24 08:33:23;;;;;;;0.40;0.20;;;15.80;99.90;;;;;;5010676;28;20397;-69
2022/05/24 08:35:50;;;;;;;0.40;0.20;;;16.00;99.90;;;;;;5002831;28;20400;-69
2022/05/24 08:38:16;;;;;;;0.40;0.30;;;16.10;99.90;;;;;;5005904;28;20418;-70
2022/05/24 08:40:44;;;;;;;0.40;0.20;;;16.00;99.90;;;;;;4985747;28;20985;-70
2022/05/24 08:43:22;;;;;;;0.40;0.20;;;16.00;99.90;;;;;;5011725;28;20380;-64
2022/05/24 08:48:54;;;;;;;0.40;0.22;;;16.20;99.90;;;;;;5003934;28;20415;-70
2022/05/24 08:51:28;;;;;;;0.40;0.20;;;16.10;99.90;;;;;;5010774;28;20428;-71
2022/05/24 08:53:57;;;;;;;0.40;0.20;;;16.20;99.90;;;;;;5012808;28;20442;-72
2022/05/24 08:56:31;;;;;;;0.40;0.20;;;16.10;99.90;;;;;;5011767;28;20723;-70
2022/05/24 08:59:03;;;;;;;0.40;0.20;;;16.30;99.90;;;;;;5012059;28;20475;-71
2022/05/24 09:01:32;;;;;;;0.40;0.20;;;16.30;99.90;;;;;;4981400;28;21593;-71
2022/05/24 09:04:00;;;;;;;0.40;0.20;;;16.40;99.90;;;;;;5010023;28;20435;-70
2022/05/24 09:06:49;;;;;;;0.40;0.20;;;16.40;99.90;;;;;;5011306;28;20472;-71
2022/05/24 09:09:20;;;;;;;0.40;0.20;;;16.60;99.90;;;;;;5004299;28;20425;-71
2022/05/24 09:12:05;;;;;;;0.40;0.30;;;16.70;99.90;;;;;;4999111;28;20936;-72
2022/05/24 09:14:48;;;;;;;0.40;0.20;;;16.90;99.90;;;;;;5004427;28;20464;-72
2022/05/24 09:17:32;;;;;;;0.40;0.20;;;16.80;99.90;;;;;;5004287;28;20401;-72
2022/05/24 09:19:58;;;;;;;0.40;0.20;;;16.80;99.90;;;;;;4998836;28;20416;-71
2022/05/24 09:22:23;;;;;;;0.40;0.20;;;16.90;99.90;;;;;;5000175;28;20398;-70
2022/05/24 09:24:58;;;;;;;0.40;0.20;;;17.10;99.90;;;;;;4992784;28;20486;-71
2022/05/24 09:27:28;;;;;;;0.40;0.20;;;17.10;99.90;;;;;;5004018;28;20416;-72
2022/05/24 09:30:05;;;;;;;0.40;0.20;;;17.10;99.90;;;;;;5002076;28;20427;-70
2022/05/24 09:32:36;;;;;;;0.40;0.20;;;17.30;99.90;;;;;;5004595;28;20405;-73
2022/05/24 09:35:27;;;;;;;0.40;0.30;;;17.50;99.90;;;;;;4997591;28;20398;-73
2022/05/24 09:38:17;;;;;;;0.40;0.20;;;17.40;99.90;;;;;;4997431;28;20914;-71
2022/05/24 09:40:58;;;;;;;0.40;0.20;;;17.60;99.90;;;;;;4999584;28;20417;-69
2022/05/24 09:43:33;;;;;;;0.40;0.20;;;17.50;99.90;;;;;;5002366;28;20416;-71
2022/05/24 09:46:22;;;;;;;0.40;0.20;;;17.60;99.90;;;;;;5003145;28;20468;-72
2022/05/24 09:49:18;;;;;;;0.40;0.20;;;17.80;99.90;;;;;;5000704;28;20420;-71
2022/05/24 09:51:44;;;;;;;0.68;0.65;;;18.00;99.90;;;;;;4995776;28;20401;-71
2022/05/24 09:54:17;;;;;;;0.40;0.30;;;17.90;99.20;;;;;;4974993;28;20438;-72
2022/05/24 09:56:58;;;;;;;0.40;0.20;;;18.10;99.40;;;;;;4994147;28;20402;-71
2022/05/24 09:59:26;;;;;;;0.40;0.20;;;18.20;99.90;;;;;;5006407;28;20487;-71
2022/05/24 10:01:53;;;;;;;0.40;0.20;;;18.00;99.00;;;;;;5002997;28;20401;-69
2022/05/24 10:04:37;;;;;;;0.40;0.30;;;17.90;99.10;;;;;;4995598;28;20397;-71
2022/05/24 10:07:22;;;;;;;0.40;0.30;;;17.90;98.90;;;;;;5001385;28;20404;-70
2022/05/24 10:09:59;;;;;;;0.40;0.30;;;18.10;97.70;;;;;;5009300;28;20429;-72
2022/05/24 10:12:24;;;;;;;0.40;0.30;;;18.00;97.60;;;;;;4999297;28;20412;-71
2022/05/24 10:15:09;;;;;;;0.40;0.20;;;18.20;98.00;;;;;;5010783;28;20703;-72
2022/05/24 10:18:02;;;;;;;0.40;0.30;;;18.50;95.20;;;;;;5010088;28;20420;-69
2022/05/24 10:20:57;;;;;;;0.40;0.20;;;18.70;92.90;;;;;;4998472;28;20407;-70
2022/05/24 10:23:32;;;;;;;0.40;0.20;;;18.70;92.10;;;;;;4978367;28;20897;-69
2022/05/24 10:26:11;;;;;;;0.40;0.20;;;18.50;92.30;;;;;;4998578;28;20414;-71
2022/05/24 10:29:02;;;;;;;0.40;0.30;;;18.40;91.90;;;;;;4996973;28;20402;-69
2022/05/24 10:31:52;;;;;;;0.40;0.20;;;18.30;91.20;;;;;;4990667;28;20398;-70
2022/05/24 10:40:55;;;;;;;0.40;0.30;;;18.60;90.60;;;;;;5010092;28;20803;-72
2022/05/24 10:43:39;;;;;;;0.40;0.30;;;18.20;89.30;;;;;;4930999;29;20396;-70
2022/05/24 10:46:14;;;;;;;0.40;0.40;;;18.20;90.90;;;;;;5011404;28;20384;-69
2022/05/24 10:48:55;;;;;;;0.40;0.20;;;18.20;91.10;;;;;;4992722;28;20424;-71
2022/05/24 10:51:39;;;;;;;0.40;0.30;;;18.20;90.10;;;;;;5010551;28;20407;-69
2022/05/24 10:54:22;;;;;;;0.40;0.20;;;18.10;87.30;;;;;;5010942;28;20435;-69
2022/05/24 10:56:54;;;;;;;0.40;0.30;;;18.30;88.10;;;;;;5011149;28;20385;-71
2022/05/24 10:59:34;;;;;;;0.40;0.20;;;18.30;87.50;;;;;;5011030;28;20388;-72
2022/05/24 11:02:10;;;;;;;0.40;0.30;;;18.20;86.40;;;;;;5002890;28;20406;-69
2022/05/24 11:04:44;;;;;;;0.40;0.30;;;18.40;86.50;;;;;;4995508;28;20409;-68
2022/05/24 11:07:14;;;;;;;0.40;0.30;;;18.70;80.90;;;;;;4998230;28;20964;-68
2022/05/24 11:10:10;;;;;;;0.90;0.50;;;18.80;78.20;;;;;;4999187;28;20429;-71
2022/05/24 11:12:42;;;;;;;0.40;0.20;;;18.80;75.60;;;;;;4954047;28;20422;-70
2022/05/24 11:15:23;;;;;;;0.40;0.20;;;18.80;78.30;;;;;;4963076;28;20418;-69
2022/05/24 11:17:48;;;;;;;0.40;0.30;;;19.10;77.70;;;;;;4958552;28;20394;-69
2022/05/24 11:20:22;;;;;;;0.40;0.20;;;19.40;77.30;;;;;;4956092;29;20390;-69
2022/05/24 11:23:15;;;;;;;0.40;0.30;;;19.80;78.70;;;;;;4957020;28;20398;-70
2022/05/24 11:26:06;;;;;;;0.40;0.20;;;19.90;78.60;;;;;;4967085;28;20395;-69
2022/05/24 11:28:33;;;;;;;0.40;0.30;;;20.10;74.90;;;;;;4969023;28;20415;-69
2022/05/24 11:31:28;;;;;;;0.40;0.20;;;20.10;73.80;;;;;;4966205;28;20403;-72
2022/05/24 11:33:57;;;;;;;0.40;0.30;;;20.40;74.60;;;;;;4942026;28;20437;-70
2022/05/24 11:36:45;;;;;;;0.40;0.30;;;20.90;72.40;;;;;;4941404;28;20410;-74
2022/05/24 11:39:23;;;;;;;0.40;0.20;;;22.10;68.40;;;;;;4967340;28;20946;-71
2022/05/24 11:41:48;;;;;;;0.40;0.30;;;22.40;66.30;;;;;;4973170;28;20911;-70
2022/05/24 11:44:34;;;;;;;0.40;0.30;;;22.70;65.40;;;;;;4974368;28;20399;-69
2022/05/24 11:47:00;;;;;;;0.43;0.23;;;23.50;62.10;;;;;;4967006;28;20388;-69
2022/05/24 11:49:28;;;;;;;0.40;0.20;;;23.40;60.60;;;;;;4972154;28;20421;-71
2022/05/24 11:51:56;;;;;;;0.40;0.20;;;23.30;64.30;;;;;;4963386;28;20428;-70
2022/05/24 11:54:22;;;;;;;0.40;0.20;;;22.40;63.30;;;;;;4966411;28;20401;-70
2022/05/24 11:57:03;;;;;;;0.40;0.30;;;21.80;64.00;;;;;;4964157;28;20469;-71
2022/05/24 11:59:41;;;;;;;0.40;0.20;;;21.10;66.90;;;;;;4968436;28;20499;-70
2022/05/24 12:02:23;;;;;;;0.40;0.30;;;20.50;68.80;;;;;;4974157;28;20908;-70
2022/05/24 12:08:30;;;;;;;0.40;0.30;;;20.80;68.70;;;;;;4974195;28;20408;-70
2022/05/24 12:11:05;;;;;;;0.40;0.30;;;21.90;62.70;;;;;;4970546;28;20420;-69
2022/05/24 12:14:10;;;;;;;0.40;0.20;;;21.40;64.20;;;;;;4985929;28;20419;-70
2022/05/24 12:16:45;;;;;;;0.40;0.30;;;21.80;64.40;;;;;;4981343;28;20402;-71
2022/05/24 12:19:43;;;;;;;0.45;0.32;;;22.70;59.90;;;;;;4980147;28;20423;-71
2022/05/24 12:22:11;;;;;;;0.40;0.20;;;22.20;58.30;;;;;;4981492;28;20417;-71
2022/05/24 12:24:36;;;;;;;0.40;0.20;;;22.00;60.80;;;;;;4981713;28;20462;-71
2022/05/24 12:27:40;;;;;;;0.40;0.20;;;21.90;61.80;;;;;;4983131;28;20479;-71
2022/05/24 12:30:28;;;;;;;0.40;0.30;;;22.60;61.70;;;;;;4988306;28;20441;-69
2022/05/24 12:32:56;;;;;;;0.40;0.30;;;23.30;58.30;;;;;;4982769;28;20406;-70
2022/05/24 12:35:23;;;;;;;0.40;0.30;;;23.10;56.80;;;;;;4980355;28;20402;-71
2022/05/24 12:37:54;;;;;;;0.40;0.20;;;24.00;58.30;;;;;;4980075;28;20407;-70
2022/05/24 12:40:21;;;;;;;0.40;0.20;;;23.30;57.00;;;;;;4980671;28;20406;-71
2022/05/24 12:42:50;;;;;;;0.40;0.20;;;22.90;57.90;;;;;;4982534;28;21023;-72
2022/05/24 12:45:40;;;;;;;0.40;0.20;;;22.50;59.40;;;;;;4983552;28;20395;-71
2022/05/24 12:48:18;;;;;;;0.40;0.20;;;23.20;57.00;;;;;;4983916;28;20469;-69
2022/05/24 12:50:45;;;;;;;0.40;0.20;;;23.00;57.50;;;;;;4987589;28;20414;-70
2022/05/24 12:53:13;;;;;;;0.40;0.20;;;21.90;57.80;;;;;;4985599;28;20410;-70
2022/05/24 12:55:56;;;;;;;0.40;0.30;;;22.00;59.90;;;;;;4977986;28;20430;-69
2022/05/24 12:58:37;;;;;;;0.40;0.20;;;22.50;56.90;;;;;;4981695;28;20836;-71
2022/05/24 13:01:26;;;;;;;0.40;0.20;;;23.20;56.70;;;;;;4984364;28;20961;-71
2022/05/24 13:04:10;;;;;;;0.40;0.20;;;23.60;56.60;;;;;;4980022;28;21029;-70
2022/05/24 13:06:38;;;;;;;0.40;0.30;;;23.80;57.30;;;;;;4964305;28;20493;-69
2022/05/24 13:09:25;;;;;;;0.40;0.20;;;23.70;55.70;;;;;;4983393;28;20412;-69
2022/05/24 13:12:01;;;;;;;0.40;0.30;;;23.80;52.70;;;;;;4985649;28;20917;-69
2022/05/24 13:14:36;;;;;;;0.40;0.30;;;22.70;54.00;;;;;;4986508;28;20472;-69
2022/05/24 13:17:05;;;;;;;0.40;0.30;;;23.20;54.20;;;;;;4985971;28;20473;-70
2022/05/24 13:19:45;;;;;;;0.40;0.30;;;23.30;55.10;;;;;;4982835;28;20776;-70
2022/05/24 13:22:11;;;;;;;0.40;0.30;;;24.00;55.00;;;;;;4982147;28;20751;-71
2022/05/24 13:24:54;;;;;;;0.40;0.30;;;24.10;55.50;;;;;;4980459;28;20381;-71
2022/05/24 13:27:20;;;;;;;0.40;0.30;;;24.10;53.50;;;;;;4980989;28;20406;-70
2022/05/24 13:35:44;;;;;;;0.40;0.30;;;24.20;52.20;;;;;;4973220;28;20418;-72
2022/05/24 13:38:09;;;;;;;0.40;0.20;;;24.30;54.50;;;;;;4979914;28;20818;-72
2022/05/24 13:40:56;;;;;;;0.40;0.20;;;23.70;55.70;;;;;;4982916;28;20425;-72
2022/05/24 13:43:37;;;;;;;0.40;0.30;;;24.30;52.60;;;;;;4981784;28;20485;-70
2022/05/24 13:46:21;;;;;;;0.40;0.30;;;23.80;52.20;;;;;;4983399;28;20433;-71
2022/05/24 13:48:59;;;;;;;0.40;0.30;;;23.70;53.40;;;;;;4981564;28;20448;-71
2022/05/24 13:51:36;;;;;;;0.40;0.20;;;23.30;55.30;;;;;;4983406;28;20471;-72